Time;durP1;ratioP1;P1;durP2;ratioP2;P2;SDS_P1;SDS_P2;PMS_P1;PMS_P2;Temp;Humidity;BMP_temperature;BMP_pressure;BME280_temperature;BME280_humidity;BME280_pressure;Samples;Min_cycle;Max_cycle;Signal;HPM_P1;HPM_P2
2021/04/26 00:00:31;;;;;;;;;;;6.00;61.30;;;;;;5070271;28;19936;-89
2021/04/26 00:03:03;;;;;;;;;;;5.90;61.20;;;;;;5050208;28;19920;-90
2021/04/26 00:05:28;;;;;;;;;;;5.90;61.20;;;;;;5050748;28;20480;-92
2021/04/26 00:07:54;;;;;;;;;;;5.90;61.20;;;;;;5052142;28;19956;-92
2021/04/26 00:10:20;;;;;;;;;;;5.90;61.30;;;;;;5051998;28;19931;-91
2021/04/26 00:12:46;;;;;;;;;;;6.00;61.30;;;;;;5053150;28;20391;-92
2021/04/26 00:15:14;;;;;;;;;;;5.80;61.20;;;;;;5048752;28;19909;-91
2021/04/26 00:17:40;;;;;;;;;;;5.90;61.30;;;;;;5052627;28;19924;-91
2021/04/26 00:20:09;;;;;;;;;;;5.80;61.10;;;;;;5052008;28;19909;-92
2021/04/26 00:22:35;;;;;;;;;;;5.80;61.30;;;;;;5046880;28;19935;-91
2021/04/26 00:25:01;;;;;;;;;;;5.80;61.30;;;;;;5054317;28;19909;-90
2021/04/26 00:27:26;;;;;;;;;;;5.80;61.40;;;;;;5053220;28;19908;-91
2021/04/26 00:29:52;;;;;;;;;;;5.70;61.40;;;;;;5055949;28;20296;-90
2021/04/26 00:32:17;;;;;;;;;;;5.70;61.40;;;;;;5056534;28;19992;-92
2021/04/26 00:34:42;;;;;;;;;;;5.60;61.70;;;;;;5056756;28;19991;-91
2021/04/26 00:37:08;;;;;;;;;;;5.60;61.60;;;;;;5048444;28;19982;-92
2021/04/26 00:39:33;;;;;;;;;;;5.60;61.60;;;;;;5055239;28;19913;-92
2021/04/26 00:41:59;;;;;;;;;;;5.60;61.70;;;;;;5052472;28;19920;-92
2021/04/26 00:44:24;;;;;;;;;;;5.50;61.70;;;;;;5054301;28;20007;-91
2021/04/26 00:46:50;;;;;;;;;;;5.50;61.80;;;;;;5053154;28;19920;-91
2021/04/26 00:49:15;;;;;;;;;;;5.40;61.90;;;;;;5054812;28;20382;-90
2021/04/26 00:51:41;;;;;;;;;;;5.40;62.10;;;;;;5053598;28;20379;-90
2021/04/26 00:54:06;;;;;;;;;;;5.40;62.20;;;;;;5049952;28;20348;-89
2021/04/26 00:56:32;;;;;;;;;;;5.40;62.20;;;;;;5052067;28;19924;-91
2021/04/26 00:58:58;;;;;;;;;;;5.30;62.30;;;;;;5043515;28;19913;-91
2021/04/26 01:01:24;;;;;;;;;;;5.30;62.30;;;;;;5051988;28;20372;-91
2021/04/26 01:03:49;;;;;;;;;;;5.30;62.20;;;;;;5052600;28;19959;-90
2021/04/26 01:06:15;;;;;;;;;;;5.30;62.30;;;;;;5053235;28;19919;-90
2021/04/26 01:08:40;;;;;;;;;;;5.30;62.30;;;;;;5050344;28;19909;-90
2021/04/26 01:11:06;;;;;;;;;;;5.20;62.30;;;;;;5046454;28;20393;-90
2021/04/26 01:13:50;;;;;;;;;;;5.20;62.40;;;;;;5053375;28;19919;-90
2021/04/26 01:16:18;;;;;;;;;;;5.20;62.80;;;;;;5049057;28;20363;-90
2021/04/26 01:18:55;;;;;;;;;;;5.20;63.00;;;;;;5035304;28;20360;-90
2021/04/26 01:21:20;;;;;;;;;;;5.10;62.90;;;;;;5053342;28;19928;-90
2021/04/26 01:23:49;;;;;;;;;;;5.10;63.00;;;;;;5054566;28;19913;-90
2021/04/26 01:26:23;;;;;;;;;;;5.10;62.90;;;;;;5064662;28;19913;-90
2021/04/26 01:29:01;;;;;;;;;;;5.10;62.90;;;;;;5035251;28;19921;-91
2021/04/26 01:31:36;;;;;;;;;;;5.10;63.10;;;;;;5052595;28;19913;-91
2021/04/26 01:34:02;;;;;;;;;;;5.10;63.20;;;;;;5054484;28;19913;-90
2021/04/26 01:36:28;;;;;;;;;;;5.00;63.40;;;;;;5051177;28;20495;-90
2021/04/26 01:38:55;;;;;;;;;;;5.00;63.40;;;;;;5051505;28;19912;-91
2021/04/26 01:41:22;;;;;;;;;;;5.00;63.40;;;;;;5053709;28;19995;-90
2021/04/26 01:43:49;;;;;;;;;;;5.00;63.60;;;;;;5051886;28;19919;-90
2021/04/26 01:46:15;;;;;;;;;;;5.00;64.10;;;;;;5049879;28;19916;-92
2021/04/26 01:48:45;;;;;;;;;;;4.90;63.90;;;;;;5049891;28;19923;-92
2021/04/26 01:51:11;;;;;;;;;;;5.00;63.90;;;;;;5052708;28;19916;-91
2021/04/26 01:53:37;;;;;;;;;;;4.90;63.90;;;;;;5052835;28;19923;-89
2021/04/26 01:56:04;;;;;;;;;;;4.90;64.10;;;;;;5049107;28;19913;-90
2021/04/26 01:58:30;;;;;;;;;;;4.90;64.20;;;;;;5052163;28;19928;-90
2021/04/26 02:00:56;;;;;;;;;;;4.90;64.10;;;;;;5049721;28;19913;-90
2021/04/26 02:03:23;;;;;;;;;;;4.90;64.10;;;;;;5046304;28;19920;-90
2021/04/26 02:05:50;;;;;;;;;;;4.90;64.00;;;;;;5051393;28;19913;-90
2021/04/26 02:08:15;;;;;;;;;;;4.80;64.30;;;;;;5052058;28;19958;-90
2021/04/26 02:10:41;;;;;;;;;;;4.80;64.50;;;;;;5051809;28;19920;-89
2021/04/26 02:13:07;;;;;;;;;;;4.80;64.60;;;;;;5047074;28;19962;-90
2021/04/26 02:15:33;;;;;;;;;;;4.80;64.90;;;;;;5050568;28;19913;-90
2021/04/26 02:17:59;;;;;;;;;;;4.70;64.90;;;;;;5052214;28;19925;-90
2021/04/26 02:20:24;;;;;;;;;;;4.70;64.70;;;;;;5051494;28;19912;-90
2021/04/26 02:22:51;;;;;;;;;;;4.80;64.80;;;;;;5051486;28;20387;-90
2021/04/26 02:25:17;;;;;;;;;;;4.70;65.20;;;;;;5052690;28;20416;-90
2021/04/26 02:27:43;;;;;;;;;;;4.70;65.10;;;;;;5048532;28;19912;-90
2021/04/26 02:30:09;;;;;;;;;;;4.70;65.00;;;;;;5051689;28;19921;-89
2021/04/26 02:32:40;;;;;;;;;;;4.70;65.00;;;;;;5051014;28;20269;-89
2021/04/26 02:35:06;;;;;;;;;;;4.70;65.30;;;;;;5053224;28;19921;-89
2021/04/26 02:37:39;;;;;;;;;;;4.70;65.10;;;;;;5051413;28;19956;-89
2021/04/26 02:40:07;;;;;;;;;;;4.70;65.30;;;;;;5041978;28;19920;-89
2021/04/26 02:42:33;;;;;;;;;;;4.70;65.10;;;;;;5050589;28;20249;-89
2021/04/26 02:44:59;;;;;;;;;;;4.70;65.20;;;;;;5052417;28;19971;-90
2021/04/26 02:47:27;;;;;;;;;;;4.70;65.00;;;;;;5050474;28;19913;-90
2021/04/26 02:49:53;;;;;;;;;;;4.70;64.90;;;;;;5050792;28;20313;-91
2021/04/26 02:52:18;;;;;;;;;;;4.70;64.80;;;;;;5050431;28;19999;-90
2021/04/26 02:54:44;;;;;;;;;;;4.70;64.90;;;;;;5051101;28;20375;-90
2021/04/26 02:57:10;;;;;;;;;;;4.70;64.90;;;;;;5050714;28;19924;-90
2021/04/26 02:59:37;;;;;;;;;;;4.70;64.80;;;;;;5051277;28;20341;-89
2021/04/26 03:02:03;;;;;;;;;;;4.70;65.80;;;;;;5049641;28;19938;-89
2021/04/26 03:04:29;;;;;;;;;;;4.60;65.60;;;;;;5051111;28;19920;-89
2021/04/26 03:06:56;;;;;;;;;;;4.60;65.20;;;;;;5049879;28;19921;-91
2021/04/26 03:09:22;;;;;;;;;;;4.60;65.00;;;;;;5050683;28;20248;-91
2021/04/26 03:11:48;;;;;;;;;;;4.60;65.10;;;;;;5035027;28;19912;-91
2021/04/26 03:14:14;;;;;;;;;;;4.60;65.10;;;;;;5051961;28;19913;-90
2021/04/26 03:16:40;;;;;;;;;;;4.60;65.30;;;;;;5051658;28;19951;-91
2021/04/26 03:19:06;;;;;;;;;;;4.50;65.30;;;;;;5051092;28;20025;-90
2021/04/26 03:21:32;;;;;;;;;;;4.50;65.20;;;;;;5050498;28;19996;-91
2021/04/26 03:23:57;;;;;;;;;;;4.50;65.20;;;;;;5050010;28;19912;-90
2021/04/26 03:26:23;;;;;;;;;;;4.50;65.30;;;;;;5049475;28;20430;-90
2021/04/26 03:28:49;;;;;;;;;;;4.50;65.30;;;;;;5046416;28;20391;-90
2021/04/26 03:31:14;;;;;;;;;;;4.50;65.50;;;;;;5044510;28;19917;-90
2021/04/26 03:33:40;;;;;;;;;;;4.40;65.50;;;;;;5050038;28;19959;-91
2021/04/26 03:36:06;;;;;;;;;;;4.40;66.10;;;;;;5049887;28;19913;-90
2021/04/26 03:38:32;;;;;;;;;;;4.40;66.00;;;;;;5049796;28;19920;-89
2021/04/26 03:40:58;;;;;;;;;;;4.40;66.00;;;;;;5048181;28;20229;-90
2021/04/26 03:43:24;;;;;;;;;;;4.40;66.10;;;;;;5049690;28;19913;-91
2021/04/26 03:45:50;;;;;;;;;;;4.40;66.30;;;;;;5040219;28;19917;-91
2021/04/26 03:48:15;;;;;;;;;;;4.40;66.40;;;;;;5050529;28;19985;-90
2021/04/26 03:50:41;;;;;;;;;;;4.40;66.70;;;;;;5049504;28;20003;-90
2021/04/26 03:53:06;;;;;;;;;;;4.30;67.00;;;;;;5049610;28;19963;-89
2021/04/26 03:55:32;;;;;;;;;;;4.30;66.80;;;;;;5050009;28;20000;-91
2021/04/26 03:57:57;;;;;;;;;;;4.30;66.80;;;;;;5041672;28;20004;-91
2021/04/26 04:00:23;;;;;;;;;;;4.20;66.80;;;;;;5048849;28;19943;-91
2021/04/26 04:02:49;;;;;;;;;;;4.30;66.80;;;;;;5046114;28;20316;-91
2021/04/26 04:05:15;;;;;;;;;;;4.30;66.60;;;;;;5046052;28;20345;-92
2021/04/26 04:07:41;;;;;;;;;;;4.30;66.80;;;;;;5048966;28;19913;-91
2021/04/26 04:10:07;;;;;;;;;;;4.30;66.80;;;;;;5047563;28;19966;-91
2021/04/26 04:12:33;;;;;;;;;;;4.30;66.90;;;;;;5048147;28;19919;-91
2021/04/26 04:14:59;;;;;;;;;;;4.30;66.80;;;;;;5044183;28;19917;-89
2021/04/26 04:17:24;;;;;;;;;;;4.30;67.40;;;;;;5049289;28;20012;-89
2021/04/26 04:19:50;;;;;;;;;;;4.30;67.00;;;;;;5046747;28;20332;-87
2021/04/26 04:22:16;;;;;;;;;;;4.30;66.80;;;;;;5052385;28;19917;-89
2021/04/26 04:24:41;;;;;;;;;;;4.30;66.70;;;;;;5051308;28;19921;-90
2021/04/26 04:27:07;;;;;;;;;;;4.30;66.80;;;;;;5049974;28;19995;-90
2021/04/26 04:29:32;;;;;;;;;;;4.30;66.90;;;;;;5039218;28;19924;-90
2021/04/26 04:31:58;;;;;;;;;;;4.30;67.00;;;;;;5041565;28;20053;-90
2021/04/26 04:34:23;;;;;;;;;;;4.30;67.50;;;;;;5048951;28;20371;-92
2021/04/26 04:36:48;;;;;;;;;;;4.30;67.60;;;;;;5050928;28;20279;-91
2021/04/26 04:39:14;;;;;;;;;;;4.30;67.60;;;;;;5048496;28;19913;-91
2021/04/26 04:41:39;;;;;;;;;;;4.40;67.40;;;;;;5049068;28;19912;-91
2021/04/26 04:44:05;;;;;;;;;;;4.40;67.20;;;;;;5044117;28;20400;-90
2021/04/26 04:46:30;;;;;;;;;;;4.40;67.10;;;;;;5049553;28;19913;-91
2021/04/26 04:48:56;;;;;;;;;;;4.40;66.90;;;;;;5050662;28;19978;-92
2021/04/26 04:51:22;;;;;;;;;;;4.50;66.80;;;;;;5049923;28;20315;-92
2021/04/26 04:53:47;;;;;;;;;;;4.50;66.70;;;;;;5048498;28;19919;-92
2021/04/26 04:56:13;;;;;;;;;;;4.50;66.70;;;;;;5052632;28;19917;-91
2021/04/26 04:58:39;;;;;;;;;;;4.50;67.00;;;;;;5040253;28;19971;-90
2021/04/26 05:01:04;;;;;;;;;;;4.60;66.80;;;;;;5052462;28;19913;-90
2021/04/26 05:03:30;;;;;;;;;;;4.60;66.80;;;;;;5058520;28;20012;-88
2021/04/26 05:05:55;;;;;;;;;;;4.60;66.70;;;;;;5052806;28;19913;-89
2021/04/26 05:08:21;;;;;;;;;;;4.60;66.90;;;;;;5041805;28;20359;-89
2021/04/26 05:10:46;;;;;;;;;;;4.70;66.70;;;;;;5044760;28;20007;-89
2021/04/26 05:13:12;;;;;;;;;;;4.70;66.60;;;;;;5050015;28;19966;-91
2021/04/26 05:15:38;;;;;;;;;;;4.70;66.70;;;;;;5053937;28;19919;-92
2021/04/26 05:18:03;;;;;;;;;;;4.70;66.70;;;;;;5053371;28;19940;-92
2021/04/26 05:20:29;;;;;;;;;;;4.80;67.10;;;;;;5054962;28;19956;-92
2021/04/26 05:22:54;;;;;;;;;;;4.80;66.90;;;;;;5048279;28;20501;-91
2021/04/26 05:25:20;;;;;;;;;;;4.80;66.70;;;;;;5048185;28;19939;-88
2021/04/26 05:27:45;;;;;;;;;;;4.90;67.20;;;;;;5053164;28;19913;-89
2021/04/26 05:30:11;;;;;;;;;;;4.90;67.10;;;;;;5048567;28;19920;-89
2021/04/26 05:32:36;;;;;;;;;;;5.80;67.20;;;;;;5055451;28;19916;-89
2021/04/26 05:35:02;;;;;;;;;;;7.10;64.40;;;;;;5054628;28;19927;-90
2021/04/26 05:37:28;;;;;;;;;;;8.40;61.40;;;;;;5054230;28;20003;-90
2021/04/26 05:39:53;;;;;;;;;;;9.50;58.30;;;;;;5054248;28;20011;-88
2021/04/26 05:42:19;;;;;;;;;;;10.40;56.00;;;;;;5051133;28;20050;-89
2021/04/26 05:44:44;;;;;;;;;;;11.40;54.00;;;;;;5055298;28;19952;-91
2021/04/26 05:47:10;;;;;;;;;;;12.10;52.20;;;;;;5054183;28;19959;-91
2021/04/26 05:49:36;;;;;;;;;;;12.80;50.60;;;;;;5054503;28;19949;-92
2021/04/26 05:52:02;;;;;;;;;;;13.00;48.90;;;;;;5053163;28;19919;-90
2021/04/26 05:54:27;;;;;;;;;;;13.50;48.20;;;;;;5048036;28;20426;-88
2021/04/26 05:56:52;;;;;;;;;;;13.70;47.10;;;;;;5044140;28;19925;-88
2021/04/26 05:59:18;;;;;;;;;;;13.90;46.10;;;;;;5052663;28;19941;-89
2021/04/26 06:01:43;;;;;;;;;;;13.90;45.10;;;;;;5051161;28;20399;-89
2021/04/26 06:04:09;;;;;;;;;;;14.20;44.60;;;;;;5051490;28;19988;-89
2021/04/26 06:06:34;;;;;;;;;;;14.90;44.30;;;;;;5051908;28;19948;-90
2021/04/26 06:09:00;;;;;;;;;;;15.60;43.30;;;;;;5050433;28;20372;-88
2021/04/26 06:11:25;;;;;;;;;;;16.10;42.50;;;;;;5051417;28;19913;-88
2021/04/26 06:13:51;;;;;;;;;;;16.50;41.40;;;;;;5049634;28;19913;-91
2021/04/26 06:16:16;;;;;;;;;;;16.60;39.00;;;;;;5052708;28;19919;-92
2021/04/26 06:18:42;;;;;;;;;;;16.40;39.50;;;;;;5052788;28;19920;-92
2021/04/26 06:21:07;;;;;;;;;;;16.30;39.70;;;;;;5053591;28;19913;-92
2021/04/26 06:23:33;;;;;;;;;;;16.80;39.30;;;;;;5051153;28;19913;-93
2021/04/26 06:25:58;;;;;;;;;;;17.40;38.90;;;;;;5049593;28;20196;-91
2021/04/26 06:28:24;;;;;;;;;;;17.90;38.30;;;;;;5047106;28;19913;-92
2021/04/26 06:30:49;;;;;;;;;;;18.10;37.20;;;;;;5051686;28;19963;-91
2021/04/26 06:33:16;;;;;;;;;;;18.40;37.20;;;;;;5052418;28;20376;-92
2021/04/26 06:35:51;;;;;;;;;;;18.60;36.40;;;;;;5052857;28;19908;-91
2021/04/26 06:38:17;;;;;;;;;;;18.90;36.30;;;;;;5053389;28;19927;-92
2021/04/26 06:40:43;;;;;;;;;;;19.10;36.00;;;;;;5039726;28;19913;-92
2021/04/26 06:43:08;;;;;;;;;;;19.30;35.30;;;;;;5049668;28;19933;-92
2021/04/26 06:45:34;;;;;;;;;;;18.90;35.40;;;;;;5053033;28;19908;-92
2021/04/26 06:48:00;;;;;;;;;;;18.80;34.60;;;;;;5050286;28;19919;-92
2021/04/26 06:50:26;;;;;;;;;;;19.20;35.20;;;;;;5051859;28;19928;-90
2021/04/26 06:52:54;;;;;;;;;;;19.40;35.00;;;;;;5053622;28;19913;-94
2021/04/26 06:55:19;;;;;;;;;;;19.80;34.60;;;;;;5041011;28;19912;-95
2021/04/26 06:57:45;;;;;;;;;;;19.70;34.20;;;;;;5052342;28;20272;-96
2021/04/26 07:00:11;;;;;;;;;;;19.80;34.20;;;;;;5052888;28;19909;-94
2021/04/26 07:02:37;;;;;;;;;;;18.90;33.20;;;;;;5053814;28;19916;-94
2021/04/26 07:05:03;;;;;;;;;;;18.30;34.20;;;;;;5054091;28;19920;-95
2021/04/26 07:07:28;;;;;;;;;;;18.80;35.10;;;;;;5052097;28;20326;-94
2021/04/26 07:09:54;;;;;;;;;;;19.10;34.80;;;;;;5050895;28;19928;-88
2021/04/26 07:12:19;;;;;;;;;;;19.50;34.10;;;;;;5050995;28;20258;-89
2021/04/26 07:14:45;;;;;;;;;;;19.80;34.00;;;;;;5050720;28;19913;-89
2021/04/26 07:17:10;;;;;;;;;;;20.20;33.20;;;;;;5037989;28;19929;-94
2021/04/26 07:19:36;;;;;;;;;;;20.20;33.10;;;;;;5054990;28;19912;-94
2021/04/26 07:22:02;;;;;;;;;;;20.60;32.80;;;;;;5052533;28;19909;-93
2021/04/26 07:24:27;;;;;;;;;;;20.20;31.90;;;;;;5053100;28;20379;-92
2021/04/26 07:26:52;;;;;;;;;;;19.50;31.60;;;;;;5041811;28;19914;-91
2021/04/26 07:29:18;;;;;;;;;;;19.60;32.40;;;;;;5050517;28;19959;-91
2021/04/26 07:31:44;;;;;;;;;;;20.00;32.10;;;;;;5051539;28;19920;-92
2021/04/26 07:34:09;;;;;;;;;;;20.30;31.90;;;;;;5053052;28;20213;-90
2021/04/26 07:36:35;;;;;;;;;;;20.70;31.00;;;;;;5053118;28;20612;-92
2021/04/26 07:39:01;;;;;;;;;;;20.70;31.10;;;;;;5054433;28;20011;-91
2021/04/26 07:41:26;;;;;;;;;;;20.90;31.10;;;;;;5051358;28;20279;-92
2021/04/26 07:43:51;;;;;;;;;;;21.10;30.70;;;;;;5054626;28;19939;-91
2021/04/26 07:46:17;;;;;;;;;;;20.60;30.50;;;;;;5044760;28;20324;-91
2021/04/26 07:48:42;;;;;;;;;;;20.70;30.80;;;;;;5049849;28;19921;-91
2021/04/26 07:51:08;;;;;;;;;;;20.80;30.70;;;;;;5054867;28;19917;-89
2021/04/26 07:53:34;;;;;;;;;;;20.80;30.70;;;;;;5053062;28;19987;-92
2021/04/26 07:56:00;;;;;;;;;;;20.90;30.70;;;;;;5056744;28;19913;-92
2021/04/26 07:58:25;;;;;;;;;;;20.60;31.20;;;;;;5052695;28;19920;-92
2021/04/26 08:00:51;;;;;;;;;;;20.70;31.50;;;;;;5053420;28;19913;-92
2021/04/26 08:03:17;;;;;;;;;;;20.40;31.60;;;;;;5048409;28;19991;-91
2021/04/26 08:05:42;;;;;;;;;;;19.90;32.20;;;;;;5044926;28;19963;-88
2021/04/26 08:08:08;;;;;;;;;;;19.80;32.60;;;;;;5049621;28;20011;-90
2021/04/26 08:10:34;;;;;;;;;;;19.10;33.00;;;;;;5033492;28;19913;-91
2021/04/26 08:12:59;;;;;;;;;;;18.20;33.60;;;;;;5052733;28;20330;-90
2021/04/26 08:15:25;;;;;;;;;;;17.60;34.60;;;;;;5052201;28;19996;-91
2021/04/26 08:17:50;;;;;;;;;;;16.90;35.00;;;;;;5052067;28;19921;-91
2021/04/26 08:20:16;;;;;;;;;;;16.40;36.10;;;;;;5050539;28;19940;-90
2021/04/26 08:22:41;;;;;;;;;;;15.90;36.80;;;;;;5039271;28;19936;-91
2021/04/26 08:25:07;;;;;;;;;;;15.50;37.70;;;;;;5047265;28;20007;-94
2021/04/26 08:27:32;;;;;;;;;;;15.10;38.10;;;;;;5052606;28;20379;-93
2021/04/26 08:29:58;;;;;;;;;;;14.70;38.50;;;;;;5052978;28;19917;-93
2021/04/26 08:32:23;;;;;;;;;;;14.40;39.20;;;;;;5045860;28;19941;-92
2021/04/26 08:34:55;;;;;;;;;;;14.20;39.20;;;;;;5051496;28;19936;-92
2021/04/26 08:37:21;;;;;;;;;;;14.00;39.30;;;;;;5052301;28;19924;-92
2021/04/26 08:39:47;;;;;;;;;;;14.00;40.00;;;;;;5053022;28;19919;-93
2021/04/26 08:42:14;;;;;;;;;;;13.90;40.80;;;;;;5053433;28;19909;-92
2021/04/26 08:44:40;;;;;;;;;;;13.80;39.90;;;;;;5051964;28;20027;-92
2021/04/26 08:47:05;;;;;;;;;;;13.70;39.90;;;;;;5056652;28;19921;-91
2021/04/26 08:49:31;;;;;;;;;;;13.80;39.10;;;;;;5056840;28;19913;-93
2021/04/26 08:51:57;;;;;;;;;;;13.40;38.30;;;;;;5056992;28;19909;-92
2021/04/26 08:54:22;;;;;;;;;;;13.10;38.40;;;;;;5057154;28;19934;-95
2021/04/26 08:56:49;;;;;;;;;;;13.10;39.40;;;;;;5057497;28;19908;-91
2021/04/26 08:59:14;;;;;;;;;;;13.30;39.80;;;;;;5057364;28;20547;-90
2021/04/26 09:01:58;;;;;;;;;;;13.40;39.50;;;;;;5056335;28;20632;-93
2021/04/26 09:04:24;;;;;;;;;;;13.50;39.50;;;;;;5057605;28;19913;-92
2021/04/26 09:06:52;;;;;;;;;;;13.70;39.60;;;;;;5056373;28;19916;-91
2021/04/26 09:09:33;;;;;;;;;;;13.80;38.90;;;;;;5056210;28;19908;-91
2021/04/26 09:11:59;;;;;;;;;;;13.80;38.90;;;;;;5054816;28;19939;-91
2021/04/26 09:14:44;;;;;;;;;;;13.90;38.80;;;;;;5056168;28;19909;-91
2021/04/26 09:17:25;;;;;;;;;;;14.10;39.00;;;;;;5056021;28;19940;-91
2021/04/26 09:19:50;;;;;;;;;;;14.10;38.70;;;;;;5055877;28;20000;-91
2021/04/26 09:22:16;;;;;;;;;;;13.90;37.80;;;;;;5044057;28;20489;-89
2021/04/26 09:24:41;;;;;;;;;;;14.00;38.60;;;;;;5055894;28;20115;-92
2021/04/26 09:27:17;;;;;;;;;;;13.90;38.00;;;;;;5048469;28;19939;-92
2021/04/26 09:29:42;;;;;;;;;;;14.00;38.40;;;;;;5053655;28;19920;-92
2021/04/26 09:32:15;;;;;;;;;;;13.90;37.80;;;;;;5055722;28;20073;-91
2021/04/26 09:34:41;;;;;;;;;;;14.00;38.30;;;;;;5053794;28;19987;-92
2021/04/26 09:37:12;;;;;;;;;;;14.10;38.50;;;;;;5055174;28;19925;-91
2021/04/26 09:39:58;;;;;;;;;;;14.20;39.00;;;;;;5050837;28;19920;-90
2021/04/26 09:42:36;;;;;;;;;;;14.30;38.40;;;;;;5051465;28;19913;-92
2021/04/26 09:45:17;;;;;;;;;;;14.40;38.30;;;;;;5050024;28;19913;-92
2021/04/26 09:47:42;;;;;;;;;;;14.50;38.10;;;;;;5041946;28;20322;-91
2021/04/26 09:50:14;;;;;;;;;;;14.60;38.00;;;;;;5051087;28;19939;-91
2021/04/26 09:52:40;;;;;;;;;;;14.70;38.00;;;;;;5050347;28;20003;-91
2021/04/26 09:55:05;;;;;;;;;;;14.60;37.60;;;;;;5053613;28;19948;-90
2021/04/26 09:57:31;;;;;;;;;;;14.60;37.70;;;;;;5048468;28;20430;-92
2021/04/26 09:59:59;;;;;;;;;;;14.70;37.90;;;;;;5050514;28;19916;-91
2021/04/26 10:02:25;;;;;;;;;;;14.80;37.80;;;;;;5051482;28;19972;-91
2021/04/26 10:04:52;;;;;;;;;;;14.70;37.10;;;;;;5048569;28;19952;-92
2021/04/26 10:07:18;;;;;;;;;;;14.80;37.30;;;;;;5054807;28;19963;-89
2021/04/26 10:09:45;;;;;;;;;;;14.50;36.10;;;;;;5054089;28;20321;-91
2021/04/26 10:12:11;;;;;;;;;;;14.40;36.10;;;;;;5055404;28;19964;-91
2021/04/26 10:14:41;;;;;;;;;;;14.30;36.20;;;;;;5053343;28;19951;-91
2021/04/26 10:17:13;;;;;;;;;;;14.20;35.90;;;;;;5048597;28;20487;-91
2021/04/26 10:19:46;;;;;;;;;;;13.90;35.00;;;;;;5053115;28;20560;-91
2021/04/26 10:22:11;;;;;;;;;;;13.90;36.00;;;;;;5050761;28;19924;-90
2021/04/26 10:24:49;;;;;;;;;;;13.70;36.10;;;;;;5050682;28;19920;-89
2021/04/26 10:27:27;;;;;;;;;;;13.60;36.10;;;;;;5052508;28;20383;-91
2021/04/26 10:30:00;;;;;;;;;;;13.90;36.70;;;;;;5052231;28;19928;-91
2021/04/26 10:32:26;;;;;;;;;;;14.00;36.60;;;;;;5053858;28;19912;-92
2021/04/26 10:35:04;;;;;;;;;;;14.10;36.50;;;;;;5054580;28;21254;-90
2021/04/26 10:37:29;;;;;;;;;;;14.10;35.90;;;;;;5046713;28;19950;-93
2021/04/26 10:39:57;;;;;;;;;;;14.20;36.00;;;;;;5050711;28;20011;-92
2021/04/26 10:42:32;;;;;;;;;;;14.40;36.20;;;;;;5056650;28;19952;-89
2021/04/26 10:44:58;;;;;;;;;;;14.60;36.20;;;;;;5053299;28;20103;-89
2021/04/26 10:47:28;;;;;;;;;;;14.70;35.90;;;;;;5055821;28;19893;-89
2021/04/26 10:50:00;;;;;;;;;;;14.70;34.40;;;;;;5050533;28;20282;-90
2021/04/26 10:52:35;;;;;;;;;;;14.40;35.00;;;;;;5049789;28;19913;-91
2021/04/26 10:55:03;;;;;;;;;;;14.30;35.10;;;;;;5053248;28;20027;-92
2021/04/26 10:57:32;;;;;;;;;;;14.40;35.20;;;;;;5050931;28;19960;-92
2021/04/26 11:00:16;;;;;;;;;;;14.20;34.50;;;;;;5050358;28;19952;-90
2021/04/26 11:02:42;;;;;;;;;;;14.30;35.00;;;;;;5064215;28;19999;-92
2021/04/26 11:05:20;;;;;;;;;;;14.20;35.30;;;;;;5051305;28;19960;-91
2021/04/26 11:07:50;;;;;;;;;;;14.30;35.60;;;;;;5046126;28;20395;-92
2021/04/26 11:10:28;;;;;;;;;;;14.60;35.60;;;;;;5048937;28;19913;-91
2021/04/26 11:12:54;;;;;;;;;;;14.60;35.50;;;;;;5050294;28;19920;-91
2021/04/26 11:15:22;;;;;;;;;;;14.50;34.70;;;;;;5050779;28;19942;-92
2021/04/26 11:17:47;;;;;;;;;;;14.20;34.80;;;;;;5051101;28;19920;-92
2021/04/26 11:20:14;;;;;;;;;;;14.20;35.50;;;;;;5053115;28;20334;-92
2021/04/26 11:22:40;;;;;;;;;;;14.30;35.70;;;;;;5053488;28;20303;-93
2021/04/26 11:25:06;;;;;;;;;;;14.60;35.70;;;;;;5052652;28;20011;-92
2021/04/26 11:27:32;;;;;;;;;;;14.80;35.50;;;;;;5059492;28;19913;-91
2021/04/26 11:29:57;;;;;;;;;;;14.60;35.50;;;;;;5055795;28;20023;-93
2021/04/26 11:32:25;;;;;;;;;;;14.70;36.00;;;;;;5053347;28;19962;-90
2021/04/26 11:34:50;;;;;;;;;;;14.60;35.70;;;;;;5051133;28;19958;-92
2021/04/26 11:37:16;;;;;;;;;;;14.40;36.10;;;;;;5051265;28;20335;-89
2021/04/26 11:39:42;;;;;;;;;;;14.60;36.50;;;;;;5053598;28;19928;-90
2021/04/26 11:42:08;;;;;;;;;;;14.50;36.10;;;;;;5056500;28;19912;-90
2021/04/26 11:44:35;;;;;;;;;;;14.60;36.30;;;;;;5055651;28;19975;-89
2021/04/26 11:47:06;;;;;;;;;;;14.50;36.20;;;;;;5052065;28;19913;-87
2021/04/26 11:49:37;;;;;;;;;;;14.60;36.30;;;;;;5042263;28;20236;-89
2021/04/26 11:52:11;;;;;;;;;;;14.90;36.30;;;;;;5047573;28;19913;-88
2021/04/26 11:54:37;;;;;;;;;;;14.90;35.70;;;;;;5051214;28;19917;-90
2021/04/26 11:57:07;;;;;;;;;;;15.00;36.10;;;;;;5049963;28;19920;-91
2021/04/26 11:59:32;;;;;;;;;;;15.20;36.00;;;;;;5048906;28;19959;-90
2021/04/26 12:01:58;;;;;;;;;;;15.20;35.60;;;;;;5051159;28;20041;-89
2021/04/26 12:04:34;;;;;;;;;;;15.40;35.20;;;;;;5051063;28;19913;-91
2021/04/26 12:07:00;;;;;;;;;;;15.60;35.00;;;;;;5048448;28;20043;-90
2021/04/26 12:09:26;;;;;;;;;;;15.60;34.40;;;;;;5050028;28;19917;-90
2021/04/26 12:11:55;;;;;;;;;;;15.70;35.00;;;;;;5048756;28;20422;-89
2021/04/26 12:14:21;;;;;;;;;;;15.90;35.00;;;;;;5049870;28;19923;-92
2021/04/26 12:16:46;;;;;;;;;;;16.00;34.90;;;;;;5047828;28;19913;-93
2021/04/26 12:19:13;;;;;;;;;;;16.20;34.40;;;;;;5032963;28;19962;-89
2021/04/26 12:21:38;;;;;;;;;;;16.10;33.20;;;;;;5050414;28;20276;-91
2021/04/26 12:24:04;;;;;;;;;;;16.10;33.60;;;;;;5053441;28;19909;-94
2021/04/26 12:26:30;;;;;;;;;;;16.30;33.60;;;;;;5052483;28;19912;-91
2021/04/26 12:28:55;;;;;;;;;;;16.50;33.40;;;;;;5052405;28;19917;-91
2021/04/26 12:31:27;;;;;;;;;;;16.70;33.10;;;;;;5052289;28;19912;-91
2021/04/26 12:34:05;;;;;;;;;;;16.80;32.10;;;;;;5050936;28;19916;-90
2021/04/26 12:36:31;;;;;;;;;;;16.70;31.90;;;;;;5066407;28;19919;-90
2021/04/26 12:38:56;;;;;;;;;;;16.30;30.30;;;;;;5052183;28;19941;-91
2021/04/26 12:41:22;;;;;;;;;;;16.00;31.50;;;;;;5032702;28;19909;-92
2021/04/26 12:43:54;;;;;;;;;;;16.20;32.10;;;;;;5050158;28;20394;-90
2021/04/26 12:46:20;;;;;;;;;;;16.50;32.10;;;;;;5051973;28;19975;-90
2021/04/26 12:48:45;;;;;;;;;;;16.60;31.70;;;;;;5052088;28;20561;-90
2021/04/26 12:51:25;;;;;;;;;;;16.70;31.20;;;;;;5046236;28;19921;-90
2021/04/26 12:53:51;;;;;;;;;;;16.40;30.50;;;;;;5047231;28;19913;-88
2021/04/26 12:56:20;;;;;;;;;;;16.30;31.20;;;;;;5051141;28;20091;-91
2021/04/26 12:58:51;;;;;;;;;;;16.40;31.60;;;;;;5051711;28;20015;-89
2021/04/26 13:01:20;;;;;;;;;;;16.30;31.10;;;;;;5051292;28;19917;-90
2021/04/26 13:03:52;;;;;;;;;;;16.30;31.50;;;;;;5050071;28;19931;-91
2021/04/26 13:06:26;;;;;;;;;;;16.00;31.20;;;;;;5048455;28;20019;-90
2021/04/26 13:08:57;;;;;;;;;;;16.20;31.90;;;;;;5036627;28;19920;-89
2021/04/26 13:11:30;;;;;;;;;;;16.50;31.70;;;;;;5050285;28;20387;-89
2021/04/26 13:13:58;;;;;;;;;;;16.70;31.60;;;;;;5050572;28;19913;-89
2021/04/26 13:16:25;;;;;;;;;;;17.00;31.10;;;;;;5049398;28;21134;-90
2021/04/26 13:18:52;;;;;;;;;;;17.10;31.10;;;;;;5048584;28;19989;-90
2021/04/26 13:21:20;;;;;;;;;;;17.20;30.60;;;;;;5048859;28;20306;-90
2021/04/26 13:23:46;;;;;;;;;;;17.20;30.40;;;;;;5048893;28;20314;-92
2021/04/26 13:26:22;;;;;;;;;;;17.30;30.10;;;;;;5043275;28;19913;-91
2021/04/26 13:28:47;;;;;;;;;;;17.50;30.40;;;;;;5048771;28;20211;-91
2021/04/26 13:31:13;;;;;;;;;;;17.50;29.60;;;;;;5047071;28;20210;-90
2021/04/26 13:33:39;;;;;;;;;;;17.40;29.60;;;;;;5050379;28;20446;-90
2021/04/26 13:36:04;;;;;;;;;;;17.10;29.40;;;;;;5054330;28;19908;-93
2021/04/26 13:38:31;;;;;;;;;;;17.10;30.00;;;;;;5050519;28;19928;-89
2021/04/26 13:40:57;;;;;;;;;;;17.30;29.90;;;;;;5052060;28;20253;-89
2021/04/26 13:43:22;;;;;;;;;;;17.50;29.40;;;;;;5049306;28;19925;-89
2021/04/26 13:45:48;;;;;;;;;;;17.20;28.90;;;;;;5051153;28;20421;-90
2021/04/26 13:48:14;;;;;;;;;;;17.20;29.40;;;;;;5049342;28;20374;-90
2021/04/26 13:50:40;;;;;;;;;;;17.40;29.60;;;;;;5040898;28;19916;-91
2021/04/26 13:53:06;;;;;;;;;;;17.40;29.60;;;;;;5053696;28;19974;-91
2021/04/26 13:55:32;;;;;;;;;;;17.40;29.90;;;;;;5053125;28;19913;-90
2021/04/26 13:57:58;;;;;;;;;;;17.50;29.70;;;;;;5051024;28;19921;-89
2021/04/26 14:00:24;;;;;;;;;;;17.00;29.30;;;;;;5048326;28;19917;-90
2021/04/26 14:02:50;;;;;;;;;;;16.80;30.00;;;;;;5050459;28;20584;-91
2021/04/26 14:05:15;;;;;;;;;;;16.90;30.20;;;;;;5053629;28;19912;-90
2021/04/26 14:07:41;;;;;;;;;;;17.10;30.10;;;;;;5047686;28;20417;-90
2021/04/26 14:10:06;;;;;;;;;;;17.10;30.00;;;;;;5051871;28;20023;-93
2021/04/26 14:12:32;;;;;;;;;;;17.10;29.60;;;;;;5051844;28;19917;-92
2021/04/26 14:14:58;;;;;;;;;;;16.90;29.80;;;;;;5052458;28;19935;-90
2021/04/26 14:17:23;;;;;;;;;;;16.70;29.70;;;;;;5048039;28;19943;-90
2021/04/26 14:19:49;;;;;;;;;;;16.80;30.10;;;;;;5051073;28;20409;-89